Time;durP1;ratioP1;P1;durP2;ratioP2;P2;SDS_P1;SDS_P2;PMS_P1;PMS_P2;Temp;Humidity;BMP_temperature;BMP_pressure;BME280_temperature;BME280_humidity;BME280_pressure;Samples;Min_cycle;Max_cycle;Signal;HPM_P1;HPM_P2
2022/08/01 00:00:06;;;;;;;;;;;;;;;20.97;50.98;99686.50;4288674;33;19988;-82
2022/08/01 00:02:38;;;;;;;;;;;;;;;21.04;50.85;99681.91;4289035;33;20043;-83
2022/08/01 00:05:06;;;;;;;;;;;;;;;21.10;50.47;99687.00;4294677;33;19996;-84
2022/08/01 00:07:36;;;;;;;;;;;;;;;21.03;50.41;99686.31;4290129;33;20395;-84
2022/08/01 00:10:04;;;;;;;;;;;;;;;20.92;50.95;99687.53;4282667;33;20017;-83
2022/08/01 00:12:30;;;;;;;;;;;;;;;20.96;50.75;99689.16;4282855;33;19997;-81
2022/08/01 00:14:57;;;;;;;;;;;;;;;20.96;50.56;99694.41;4290920;33;19984;-83
2022/08/01 00:17:24;;;;;;;;;;;;;;;21.03;50.54;99681.06;4282789;33;20403;-84
2022/08/01 00:19:51;;;;;;;;;;;;;;;20.93;50.64;99673.44;4283106;33;19988;-85
2022/08/01 00:22:18;;;;;;;;;;;;;;;20.59;51.60;99674.41;4274059;33;19993;-83
2022/08/01 00:24:44;;;;;;;;;;;;;;;20.83;50.78;99681.59;4253937;33;20537;-82
2022/08/01 00:27:11;;;;;;;;;;;;;;;20.79;51.05;99682.59;4254463;33;20352;-84
2022/08/01 00:29:38;;;;;;;;;;;;;;;20.71;51.21;99679.34;4253788;33;20015;-83
2022/08/01 00:32:25;;;;;;;;;;;;;;;20.76;50.99;99672.16;4253865;33;20000;-83
2022/08/01 00:34:52;;;;;;;;;;;;;;;20.92;50.41;99667.34;4254163;33;19993;-83
2022/08/01 00:37:19;;;;;;;;;;;;;;;20.69;51.37;99665.37;4256120;33;20340;-84
2022/08/01 00:39:46;;;;;;;;;;;;;;;20.68;51.22;99668.91;4260679;33;19982;-84
2022/08/01 00:42:12;;;;;;;;;;;;;;;20.72;51.17;99664.41;4258441;33;20332;-83
2022/08/01 00:44:39;;;;;;;;;;;;;;;20.74;51.10;99662.59;4263629;33;20336;-84
2022/08/01 00:47:07;;;;;;;;;;;;;;;20.66;51.38;99665.44;4256710;33;19985;-85
2022/08/01 00:49:35;;;;;;;;;;;;;;;20.68;51.59;99661.03;4255519;33;19997;-85
2022/08/01 00:52:04;;;;;;;;;;;;;;;20.64;51.54;99659.34;4258772;33;20057;-84
2022/08/01 00:54:32;;;;;;;;;;;;;;;20.65;51.11;99658.47;4253001;33;19993;-85
2022/08/01 00:56:58;;;;;;;;;;;;;;;20.70;50.97;99663.59;4255099;33;20336;-84
2022/08/01 00:59:25;;;;;;;;;;;;;;;20.30;52.20;99662.88;4257830;33;20748;-84
2022/08/01 01:01:52;;;;;;;;;;;;;;;20.50;51.67;99664.13;4254312;33;19993;-84
2022/08/01 01:04:21;;;;;;;;;;;;;;;20.56;51.30;99664.84;4255410;33;20676;-85
2022/08/01 01:06:47;;;;;;;;;;;;;;;20.47;51.73;99664.19;4260495;33;19990;-84
2022/08/01 01:09:27;;;;;;;;;;;;;;;20.41;51.60;99665.22;4257961;33;19977;-82
2022/08/01 01:11:54;;;;;;;;;;;;;;;20.47;51.37;99674.72;4289291;33;20044;-82
2022/08/01 01:14:23;;;;;;;;;;;;;;;20.42;51.45;99672.19;4283733;33;20043;-83
2022/08/01 01:16:50;;;;;;;;;;;;;;;20.43;51.42;99674.78;4282851;33;20109;-82
2022/08/01 01:19:20;;;;;;;;;;;;;;;20.37;51.82;99669.69;4281127;33;20044;-83
2022/08/01 01:22:07;;;;;;;;;;;;;;;20.50;50.99;99674.63;4281307;33;19985;-82
2022/08/01 01:24:38;;;;;;;;;;;;;;;20.28;51.97;99675.19;4282708;33;20001;-82
2022/08/01 01:27:17;;;;;;;;;;;;;;;20.32;52.01;99678.59;4282444;33;19995;-83
2022/08/01 01:29:46;;;;;;;;;;;;;;;20.35;51.88;99671.50;4256446;33;19999;-85
2022/08/01 01:32:33;;;;;;;;;;;;;;;20.22;51.96;99675.34;4277788;33;20012;-85
2022/08/01 01:35:05;;;;;;;;;;;;;;;20.33;51.89;99673.31;4268156;33;19993;-85
2022/08/01 01:37:33;;;;;;;;;;;;;;;20.23;52.16;99671.84;4274235;33;19986;-83
2022/08/01 01:40:00;;;;;;;;;;;;;;;20.41;51.47;99668.72;4267779;33;20056;-82
2022/08/01 01:42:27;;;;;;;;;;;;;;;20.04;52.70;99665.31;4246461;33;20325;-83
2022/08/01 01:44:57;;;;;;;;;;;;;;;20.35;51.63;99660.97;4264905;33;19985;-82
2022/08/01 01:47:23;;;;;;;;;;;;;;;20.36;51.86;99662.72;4264005;33;19981;-83
2022/08/01 01:49:50;;;;;;;;;;;;;;;20.30;52.09;99662.88;4262066;33;19995;-84
2022/08/01 01:52:17;;;;;;;;;;;;;;;20.45;51.56;99664.22;4254265;33;20040;-84
2022/08/01 01:54:45;;;;;;;;;;;;;;;20.49;50.83;99659.78;4253730;33;20057;-85
2022/08/01 01:57:13;;;;;;;;;;;;;;;20.33;51.65;99657.56;4265301;33;20003;-84
2022/08/01 01:59:39;;;;;;;;;;;;;;;20.07;52.78;99665.22;4271058;33;19978;-83
2022/08/01 02:02:06;;;;;;;;;;;;;;;20.31;51.90;99659.34;4264129;33;19999;-82
2022/08/01 02:04:35;;;;;;;;;;;;;;;19.99;52.76;99665.44;4263936;33;20461;-81
2022/08/01 02:07:03;;;;;;;;;;;;;;;20.17;52.10;99656.25;4271649;33;19990;-82
2022/08/01 02:09:29;;;;;;;;;;;;;;;20.20;52.12;99656.16;4253732;33;19992;-81
2022/08/01 02:11:56;;;;;;;;;;;;;;;20.25;51.99;99649.00;4263561;33;20001;-82
2022/08/01 02:14:35;;;;;;;;;;;;;;;20.05;52.67;99646.03;4262834;33;20082;-82
2022/08/01 02:17:03;;;;;;;;;;;;;;;19.90;52.87;99648.13;4266116;33;19993;-82
2022/08/01 02:19:30;;;;;;;;;;;;;;;20.09;52.43;99645.03;4284649;33;19981;-82
2022/08/01 02:22:22;;;;;;;;;;;;;;;20.25;51.93;99638.47;4266455;33;20002;-81
2022/08/01 02:24:50;;;;;;;;;;;;;;;20.08;52.24;99638.94;4272663;33;19989;-82
2022/08/01 02:27:38;;;;;;;;;;;;;;;20.05;52.64;99639.00;4270004;33;19997;-83
2022/08/01 02:30:05;;;;;;;;;;;;;;;20.27;51.81;99631.44;4279977;33;20032;-83
2022/08/01 02:32:40;;;;;;;;;;;;;;;20.27;51.73;99631.44;4280421;33;20029;-85
2022/08/01 02:35:07;;;;;;;;;;;;;;;20.02;52.67;99640.84;4294050;33;19992;-82
2022/08/01 02:37:34;;;;;;;;;;;;;;;20.33;51.12;99638.28;4302618;33;20059;-83
2022/08/01 02:40:01;;;;;;;;;;;;;;;19.94;52.97;99641.94;4294318;33;20710;-82
2022/08/01 02:42:30;;;;;;;;;;;;;;;19.92;52.88;99648.13;4299923;33;19996;-83
2022/08/01 02:44:57;;;;;;;;;;;;;;;19.85;53.29;99650.03;4300040;33;19980;-84
2022/08/01 02:47:25;;;;;;;;;;;;;;;19.99;52.64;99647.03;4310706;33;20010;-83
2022/08/01 02:49:52;;;;;;;;;;;;;;;20.17;52.26;99646.59;4308992;33;19984;-83
2022/08/01 02:52:20;;;;;;;;;;;;;;;19.93;52.68;99640.19;4308846;33;19977;-85
2022/08/01 02:54:48;;;;;;;;;;;;;;;20.02;52.62;99635.59;4303119;33;20024;-84
2022/08/01 02:57:16;;;;;;;;;;;;;;;20.05;52.58;99635.53;4294893;33;19989;-85
2022/08/01 02:59:44;;;;;;;;;;;;;;;19.82;53.47;99634.34;4294277;33;20002;-85
2022/08/01 03:02:11;;;;;;;;;;;;;;;19.94;53.10;99634.03;4297988;33;20044;-85
2022/08/01 03:04:39;;;;;;;;;;;;;;;19.61;54.13;99624.34;4298392;33;19996;-84
2022/08/01 03:07:06;;;;;;;;;;;;;;;19.65;54.23;99623.38;4282397;33;20401;-84
2022/08/01 03:09:34;;;;;;;;;;;;;;;19.90;53.57;99627.13;4302407;33;20451;-83
2022/08/01 03:12:02;;;;;;;;;;;;;;;19.72;54.19;99627.59;4294370;33;19992;-84
2022/08/01 03:14:30;;;;;;;;;;;;;;;19.69;54.17;99617.19;4294205;33;19992;-85
2022/08/01 03:16:56;;;;;;;;;;;;;;;19.75;54.04;99627.53;4293775;33;20071;-85
2022/08/01 03:19:24;;;;;;;;;;;;;;;19.60;54.47;99622.63;4296111;33;20446;-84
2022/08/01 03:21:51;;;;;;;;;;;;;;;19.76;54.19;99623.12;4300889;33;20327;-84
2022/08/01 03:24:18;;;;;;;;;;;;;;;19.76;54.26;99629.25;4295378;33;19984;-85
2022/08/01 03:26:45;;;;;;;;;;;;;;;19.72;54.32;99611.84;4294268;33;20020;-85
2022/08/01 03:29:12;;;;;;;;;;;;;;;19.80;54.11;99620.37;4297059;33;19989;-85
2022/08/01 03:31:42;;;;;;;;;;;;;;;20.04;53.61;99613.66;4300626;33;20051;-85
2022/08/01 03:34:09;;;;;;;;;;;;;;;20.01;53.86;99612.87;4297866;33;20044;-85
2022/08/01 03:36:56;;;;;;;;;;;;;;;20.09;53.34;99610.88;4298329;33;20863;-85
2022/08/01 03:39:25;;;;;;;;;;;;;;;19.89;54.17;99614.03;4295533;33;19999;-85
2022/08/01 03:41:54;;;;;;;;;;;;;;;19.83;54.36;99612.41;4300478;33;19998;-85
2022/08/01 03:44:23;;;;;;;;;;;;;;;20.04;53.91;99607.50;4295124;33;20019;-84
2022/08/01 03:46:52;;;;;;;;;;;;;;;20.05;53.96;99609.25;4294176;33;19980;-83
2022/08/01 03:49:20;;;;;;;;;;;;;;;20.24;53.60;99615.75;4293953;33;19972;-84
2022/08/01 03:51:49;;;;;;;;;;;;;;;20.08;54.01;99619.69;4300011;33;20711;-84
2022/08/01 03:54:26;;;;;;;;;;;;;;;19.85;55.14;99621.13;4295394;33;21179;-82
2022/08/01 03:56:53;;;;;;;;;;;;;;;19.93;54.92;99627.03;4294390;33;19985;-83
2022/08/01 03:59:20;;;;;;;;;;;;;;;20.05;54.56;99630.28;4297831;33;20656;-85
2022/08/01 04:01:47;;;;;;;;;;;;;;;20.21;54.14;99626.34;4297543;33;20004;-85
2022/08/01 04:04:14;;;;;;;;;;;;;;;20.28;53.74;99625.25;4297613;33;19989;-85
2022/08/01 04:06:41;;;;;;;;;;;;;;;20.33;53.93;99626.00;4303647;33;20425;-85
2022/08/01 04:09:08;;;;;;;;;;;;;;;20.35;54.18;99634.69;4297304;33;19981;-85
2022/08/01 04:11:40;;;;;;;;;;;;;;;20.44;53.73;99642.34;4295912;33;19993;-85
2022/08/01 04:14:07;;;;;;;;;;;;;;;20.63;53.48;99644.50;4302998;33;20012;-85
2022/08/01 04:16:35;;;;;;;;;;;;;;;20.65;53.56;99643.56;4299132;33;20428;-85
2022/08/01 04:19:02;;;;;;;;;;;;;;;20.53;54.09;99643.03;4303154;33;19995;-86
2022/08/01 04:21:29;;;;;;;;;;;;;;;20.61;53.95;99641.03;4305283;33;19992;-83
2022/08/01 04:23:56;;;;;;;;;;;;;;;20.71;53.15;99647.78;4295900;33;20040;-85
2022/08/01 04:26:23;;;;;;;;;;;;;;;20.82;52.61;99644.84;4283545;33;19984;-84
2022/08/01 04:28:50;;;;;;;;;;;;;;;20.85;53.11;99645.59;4295223;33;19985;-82
2022/08/01 04:31:16;;;;;;;;;;;;;;;20.87;53.48;99649.06;4303440;33;20043;-83
2022/08/01 04:33:45;;;;;;;;;;;;;;;21.02;52.57;99646.88;4305762;33;20039;-81
2022/08/01 04:36:12;;;;;;;;;;;;;;;21.05;52.80;99642.37;4310331;33;20010;-82
2022/08/01 04:38:39;;;;;;;;;;;;;;;21.02;53.37;99649.50;4308663;33;19996;-86
2022/08/01 04:41:09;;;;;;;;;;;;;;;21.11;52.42;99642.19;4298823;33;20059;-86
2022/08/01 04:43:37;;;;;;;;;;;;;;;21.16;52.45;99642.06;4303418;33;19977;-81
2022/08/01 04:46:04;;;;;;;;;;;;;;;21.25;51.96;99639.16;4297630;33;19984;-79
2022/08/01 04:48:31;;;;;;;;;;;;;;;21.18;52.35;99642.00;4302851;33;20268;-78
2022/08/01 04:50:58;;;;;;;;;;;;;;;21.24;52.29;99642.69;4298521;33;20060;-82
2022/08/01 04:53:26;;;;;;;;;;;;;;;21.29;52.64;99646.03;4302614;33;20003;-79
2022/08/01 04:55:53;;;;;;;;;;;;;;;21.32;52.74;99651.22;4297155;33;19980;-78
2022/08/01 04:58:20;;;;;;;;;;;;;;;21.29;52.89;99650.44;4304780;33;20048;-80
2022/08/01 05:00:47;;;;;;;;;;;;;;;21.50;52.47;99643.66;4296179;33;19976;-80
2022/08/01 05:03:14;;;;;;;;;;;;;;;21.56;52.38;99636.44;4303495;33;20002;-81
2022/08/01 05:05:41;;;;;;;;;;;;;;;21.63;51.98;99645.00;4297713;33;20056;-78
2022/08/01 05:08:08;;;;;;;;;;;;;;;21.65;52.23;99651.09;4297453;33;19984;-80
2022/08/01 05:10:35;;;;;;;;;;;;;;;21.72;52.24;99649.09;4300797;33;20474;-82
2022/08/01 05:13:01;;;;;;;;;;;;;;;22.01;50.34;99646.34;4295163;33;19994;-79
2022/08/01 05:15:28;;;;;;;;;;;;;;;21.99;50.37;99642.06;4303115;33;20031;-78
2022/08/01 05:17:56;;;;;;;;;;;;;;;22.08;50.36;99647.03;4296874;33;19985;-79
2022/08/01 05:20:23;;;;;;;;;;;;;;;21.85;51.66;99639.03;4295670;33;19992;-78
2022/08/01 05:22:50;;;;;;;;;;;;;;;21.98;51.27;99640.31;4297160;33;19994;-78
2022/08/01 05:25:18;;;;;;;;;;;;;;;22.19;50.22;99634.34;4305520;33;19980;-82
2022/08/01 05:27:46;;;;;;;;;;;;;;;22.10;50.41;99639.91;4296906;33;19976;-79
2022/08/01 05:30:14;;;;;;;;;;;;;;;22.06;51.02;99638.31;4300606;33;20084;-81
2022/08/01 05:32:41;;;;;;;;;;;;;;;22.24;50.10;99631.59;4301869;33;19996;-78
2022/08/01 05:35:08;;;;;;;;;;;;;;;22.38;50.48;99641.63;4296979;33;19988;-78
2022/08/01 05:37:36;;;;;;;;;;;;;;;22.31;50.44;99629.59;4300963;33;19991;-79
2022/08/01 05:40:04;;;;;;;;;;;;;;;22.23;51.41;99635.09;4299779;33;20044;-78
2022/08/01 05:42:30;;;;;;;;;;;;;;;22.40;50.34;99637.16;4304521;33;20000;-79
2022/08/01 05:44:57;;;;;;;;;;;;;;;22.53;49.46;99633.19;4295225;33;19992;-81
2022/08/01 05:47:24;;;;;;;;;;;;;;;22.61;49.24;99635.53;4298786;33;20521;-82
2022/08/01 05:49:51;;;;;;;;;;;;;;;22.69;48.89;99631.69;4302864;33;19993;-79
2022/08/01 05:52:18;;;;;;;;;;;;;;;22.64;49.10;99636.28;4296971;33;20000;-79
2022/08/01 05:54:45;;;;;;;;;;;;;;;22.81;48.49;99634.78;4296574;33;20000;-79
2022/08/01 05:57:11;;;;;;;;;;;;;;;22.90;48.40;99637.06;4303359;33;19984;-80
2022/08/01 05:59:40;;;;;;;;;;;;;;;22.92;48.05;99640.53;4299541;33;20043;-78
2022/08/01 06:02:08;;;;;;;;;;;;;;;22.66;48.88;99639.72;4302971;33;20003;-80
2022/08/01 06:04:36;;;;;;;;;;;;;;;22.61;49.55;99641.66;4295742;33;19988;-77
2022/08/01 06:07:03;;;;;;;;;;;;;;;22.87;49.32;99642.47;4299279;33;20369;-79
2022/08/01 06:09:30;;;;;;;;;;;;;;;22.96;48.65;99636.88;4300801;33;20015;-81
2022/08/01 06:11:57;;;;;;;;;;;;;;;23.04;48.83;99650.66;4308459;33;19988;-79
2022/08/01 06:14:24;;;;;;;;;;;;;;;23.04;49.12;99650.66;4309316;33;20030;-80
2022/08/01 06:16:51;;;;;;;;;;;;;;;23.16;48.86;99647.53;4302842;33;20006;-79
2022/08/01 06:19:18;;;;;;;;;;;;;;;23.18;48.50;99653.62;4304633;33;20010;-78
2022/08/01 06:21:45;;;;;;;;;;;;;;;23.27;48.63;99656.84;4317418;33;20048;-79
2022/08/01 06:24:12;;;;;;;;;;;;;;;23.07;49.35;99650.53;4316105;33;20004;-79
2022/08/01 06:26:39;;;;;;;;;;;;;;;23.43;48.07;99652.66;4315698;33;20039;-79
2022/08/01 06:29:05;;;;;;;;;;;;;;;23.53;47.69;99654.00;4318555;33;19992;-78
2022/08/01 06:31:35;;;;;;;;;;;;;;;23.27;48.74;99651.56;4315841;33;20000;-82
2022/08/01 06:34:02;;;;;;;;;;;;;;;23.62;47.99;99658.94;4299716;33;20498;-84
2022/08/01 06:36:29;;;;;;;;;;;;;;;23.95;47.71;99652.34;4314593;33;19999;-78
2022/08/01 06:38:56;;;;;;;;;;;;;;;24.17;47.27;99647.88;4312578;33;19991;-79
2022/08/01 06:41:24;;;;;;;;;;;;;;;24.45;46.18;99650.22;4305440;33;19993;-78
2022/08/01 06:43:51;;;;;;;;;;;;;;;24.61;46.29;99654.84;4322248;33;19980;-78
2022/08/01 06:46:18;;;;;;;;;;;;;;;25.18;44.23;99655.78;4325230;33;20009;-78
2022/08/01 06:48:45;;;;;;;;;;;;;;;25.26;44.11;99656.25;4323939;33;20346;-78
2022/08/01 06:51:16;;;;;;;;;;;;;;;25.63;43.29;99658.00;4310282;33;19992;-82
2022/08/01 06:53:43;;;;;;;;;;;;;;;25.80;43.48;99649.22;4306708;33;19989;-80
2022/08/01 06:56:10;;;;;;;;;;;;;;;26.31;40.99;99650.19;4281989;33;20072;-85
2022/08/01 06:58:37;;;;;;;;;;;;;;;26.48;40.96;99654.62;4283411;33;20856;-81
2022/08/01 07:01:07;;;;;;;;;;;;;;;26.75;40.78;99649.69;4288405;33;20007;-80
2022/08/01 07:03:34;;;;;;;;;;;;;;;27.18;39.01;99647.34;4281389;33;19998;-81
2022/08/01 07:06:24;;;;;;;;;;;;;;;27.12;40.84;99652.97;4279933;33;20029;-80
2022/08/01 07:08:54;;;;;;;;;;;;;;;27.63;39.47;99648.34;4283715;33;19993;-81
2022/08/01 07:11:21;;;;;;;;;;;;;;;27.64;39.04;99644.75;4283471;33;20416;-80
2022/08/01 07:13:48;;;;;;;;;;;;;;;27.93;39.59;99639.59;4287899;33;20485;-81
2022/08/01 07:16:15;;;;;;;;;;;;;;;27.98;37.98;99648.13;4282682;33;20583;-80
2022/08/01 07:18:42;;;;;;;;;;;;;;;28.23;37.83;99651.06;4280577;33;19984;-83
2022/08/01 07:21:09;;;;;;;;;;;;;;;28.57;37.97;99650.87;4280822;33;20328;-81
2022/08/01 07:23:56;;;;;;;;;;;;;;;28.91;35.25;99644.31;4286206;33;20004;-81
2022/08/01 07:26:23;;;;;;;;;;;;;;;28.93;36.20;99650.37;4281643;33;20454;-82
2022/08/01 07:28:49;;;;;;;;;;;;;;;29.26;34.28;99643.87;4284053;33;20406;-83
2022/08/01 07:31:16;;;;;;;;;;;;;;;29.19;34.44;99644.25;4287301;33;20052;-81
2022/08/01 07:33:43;;;;;;;;;;;;;;;29.21;34.15;99641.50;4287767;33;20053;-81
2022/08/01 07:36:15;;;;;;;;;;;;;;;28.64;37.03;99653.03;4283655;33;19988;-80
2022/08/01 07:38:42;;;;;;;;;;;;;;;29.00;34.37;99657.03;4278615;33;20005;-81
2022/08/01 07:41:09;;;;;;;;;;;;;;;28.38;37.83;99648.44;4288582;33;20040;-80
2022/08/01 07:43:35;;;;;;;;;;;;;;;28.93;33.86;99653.88;4290825;33;19997;-80
2022/08/01 07:46:03;;;;;;;;;;;;;;;29.01;32.98;99656.13;4288980;33;20029;-83
2022/08/01 07:48:30;;;;;;;;;;;;;;;28.96;33.94;99653.69;4282744;33;20053;-80
2022/08/01 07:50:56;;;;;;;;;;;;;;;28.68;36.21;99657.22;4280231;33;20019;-80
2022/08/01 07:53:23;;;;;;;;;;;;;;;28.54;36.95;99661.69;4290170;33;19992;-80
2022/08/01 07:55:50;;;;;;;;;;;;;;;28.76;33.94;99662.09;4283674;33;19981;-80
2022/08/01 07:58:17;;;;;;;;;;;;;;;28.69;34.29;99661.62;4287784;33;20054;-80
2022/08/01 08:00:44;;;;;;;;;;;;;;;28.46;35.52;99664.81;4293945;33;19988;-80
2022/08/01 08:03:11;;;;;;;;;;;;;;;28.58;33.66;99656.06;4285260;33;20041;-83
2022/08/01 08:05:38;;;;;;;;;;;;;;;28.72;34.24;99656.09;4292018;33;19998;-81
2022/08/01 08:08:25;;;;;;;;;;;;;;;28.73;33.36;99663.13;4296067;33;19996;-80
2022/08/01 08:10:51;;;;;;;;;;;;;;;28.41;33.45;99665.09;4307680;33;20000;-82
2022/08/01 08:13:18;;;;;;;;;;;;;;;28.07;34.86;99674.22;4290758;33;20402;-84
2022/08/01 08:15:47;;;;;;;;;;;;;;;28.34;34.06;99661.06;4283023;33;20410;-80
2022/08/01 08:18:14;;;;;;;;;;;;;;;28.03;35.56;99668.22;4286264;33;20338;-82
2022/08/01 08:20:41;;;;;;;;;;;;;;;27.87;36.31;99662.06;4286745;33;19977;-81
2022/08/01 08:24:19;;;;;;;;;;;;;;;27.93;37.29;99660.88;4283085;33;19989;-82
2022/08/01 08:26:12;;;;;;;;;;;;;;;27.72;36.97;99671.75;4284527;33;19976;-81
2022/08/01 08:28:39;;;;;;;;;;;;;;;28.10;35.78;99668.69;4287897;33;20315;-81
2022/08/01 08:31:06;;;;;;;;;;;;;;;27.91;36.46;99678.72;4296293;33;20086;-82
2022/08/01 08:33:54;;;;;;;;;;;;;;;28.16;35.91;99673.66;4297005;33;19980;-81
2022/08/01 08:36:20;;;;;;;;;;;;;;;28.00;36.01;99679.03;4296406;33;20023;-81
2022/08/01 08:39:02;;;;;;;;;;;;;;;27.99;35.11;99677.31;4288716;33;20045;-81
2022/08/01 08:41:33;;;;;;;;;;;;;;;27.84;35.74;99677.38;4292055;33;20426;-82
2022/08/01 08:44:04;;;;;;;;;;;;;;;27.64;35.90;99687.31;4290863;33;20453;-81
2022/08/01 08:46:42;;;;;;;;;;;;;;;27.31;38.09;99692.72;4292109;33;19982;-82
2022/08/01 08:49:10;;;;;;;;;;;;;;;27.54;37.13;99686.13;4291976;33;19985;-81
2022/08/01 08:51:40;;;;;;;;;;;;;;;27.69;35.75;99685.22;4283023;33;20283;-81
2022/08/01 08:54:07;;;;;;;;;;;;;;;27.36;38.14;99688.84;4271076;33;20071;-81
2022/08/01 08:56:34;;;;;;;;;;;;;;;27.36;37.66;99691.50;4286938;33;19977;-81
2022/08/01 08:59:01;;;;;;;;;;;;;;;27.58;36.00;99690.31;4283232;33;20048;-80
2022/08/01 09:01:28;;;;;;;;;;;;;;;27.76;35.41;99697.25;4289037;33;20340;-83
2022/08/01 09:03:55;;;;;;;;;;;;;;;27.47;36.25;99690.94;4284278;33;19981;-81
2022/08/01 09:06:22;;;;;;;;;;;;;;;27.52;36.99;99688.00;4287828;33;20015;-82
2022/08/01 09:08:49;;;;;;;;;;;;;;;27.84;34.91;99688.00;4289516;33;19973;-80
2022/08/01 09:11:16;;;;;;;;;;;;;;;27.75;35.23;99690.19;4135142;33;5004057;-81
2022/08/01 09:14:26;;;;;;;;;;;;;;;27.55;36.03;99688.69;4288926;33;19997;-81
2022/08/01 09:17:19;;;;;;;;;;;;;;;27.37;38.30;99698.53;4259553;33;19996;-81
2022/08/01 09:19:54;;;;;;;;;;;;;;;27.50;36.95;99695.19;4284104;33;19985;-80
2022/08/01 09:22:24;;;;;;;;;;;;;;;27.66;36.13;99700.50;4286662;33;19989;-81
2022/08/01 09:25:07;;;;;;;;;;;;;;;27.78;36.18;99690.06;4290854;33;19981;-81
2022/08/01 09:27:35;;;;;;;;;;;;;;;28.24;34.61;99692.72;4282463;33;20029;-81
2022/08/01 09:30:07;;;;;;;;;;;;;;;27.91;37.32;99686.69;4283519;33;20007;-81
2022/08/01 09:32:34;;;;;;;;;;;;;;;28.34;34.70;99692.16;4288650;33;20767;-82
2022/08/01 09:35:22;;;;;;;;;;;;;;;28.26;34.67;99685.47;4133906;33;5001438;-80
2022/08/01 09:37:49;;;;;;;;;;;;;;;28.32;35.21;99689.59;4282435;33;20741;-81
2022/08/01 09:40:17;;;;;;;;;;;;;;;28.20;35.41;99684.97;4281382;33;20035;-81
2022/08/01 09:42:48;;;;;;;;;;;;;;;28.19;35.12;99689.47;4290377;33;20000;-81
2022/08/01 09:45:33;;;;;;;;;;;;;;;28.45;35.47;99679.09;4284244;33;19977;-81
2022/08/01 09:48:10;;;;;;;;;;;;;;;28.67;35.70;99679.50;4293251;33;20307;-81
2022/08/01 09:50:41;;;;;;;;;;;;;;;28.93;33.51;99679.69;4292409;33;20000;-81
2022/08/01 09:53:11;;;;;;;;;;;;;;;29.18;34.77;99682.53;4288035;33;20379;-81
2022/08/01 09:55:55;;;;;;;;;;;;;;;29.19;32.99;99680.72;4282318;33;19993;-81
2022/08/01 09:58:22;;;;;;;;;;;;;;;29.48;32.51;99675.34;4281261;33;20462;-81
2022/08/01 10:00:59;;;;;;;;;;;;;;;29.57;32.76;99675.59;4286681;33;20386;-80
2022/08/01 10:03:29;;;;;;;;;;;;;;;29.70;32.84;99682.84;4283859;33;19989;-81
2022/08/01 10:05:58;;;;;;;;;;;;;;;29.70;32.85;99674.84;4284187;33;19999;-81
2022/08/01 10:08:25;;;;;;;;;;;;;;;29.64;34.00;99673.41;4287601;33;19988;-80
2022/08/01 10:11:10;;;;;;;;;;;;;;;29.68;33.53;99674.09;4282571;33;19997;-81
2022/08/01 10:13:38;;;;;;;;;;;;;;;29.70;32.63;99674.84;4290547;33;20006;-81
2022/08/01 10:16:06;;;;;;;;;;;;;;;29.98;31.36;99676.53;4281144;33;19977;-80
2022/08/01 10:18:33;;;;;;;;;;;;;;;29.84;32.22;99677.47;4290258;33;19977;-81
2022/08/01 10:21:02;;;;;;;;;;;;;;;29.98;30.43;99677.38;4285112;33;19981;-81
2022/08/01 10:23:35;;;;;;;;;;;;;;;29.51;34.55;99675.16;4286514;33;19993;-82
2022/08/01 10:26:06;;;;;;;;;;;;;;;29.64;32.52;99676.97;4282261;33;20019;-82
2022/08/01 10:28:35;;;;;;;;;;;;;;;29.75;32.07;99675.41;4282460;33;20000;-82
2022/08/01 10:31:05;;;;;;;;;;;;;;;29.84;31.00;99666.78;4280928;33;20033;-81
2022/08/01 10:33:41;;;;;;;;;;;;;;;29.72;32.65;99667.59;4282175;33;20036;-80
2022/08/01 10:36:20;;;;;;;;;;;;;;;29.71;31.56;99669.41;4282766;33;19988;-82
2022/08/01 10:38:48;;;;;;;;;;;;;;;30.01;31.92;99662.97;4288936;33;20055;-84
2022/08/01 10:41:15;;;;;;;;;;;;;;;30.15;31.76;99656.69;4284995;33;20016;-81
2022/08/01 10:43:42;;;;;;;;;;;;;;;30.23;31.99;99662.41;4287517;33;20004;-81
2022/08/01 10:46:13;;;;;;;;;;;;;;;30.09;32.43;99661.50;4284043;33;19992;-81
2022/08/01 10:48:45;;;;;;;;;;;;;;;30.29;31.43;99662.00;4288861;33;19999;-83
2022/08/01 10:51:13;;;;;;;;;;;;;;;30.38;31.39;99656.03;4295532;33;19985;-81
2022/08/01 10:53:51;;;;;;;;;;;;;;;30.28;31.48;99657.59;4290388;33;19996;-80
2022/08/01 10:56:21;;;;;;;;;;;;;;;30.06;32.57;99656.38;4280611;33;19999;-81
2022/08/01 10:59:02;;;;;;;;;;;;;;;30.49;29.66;99648.09;4283095;33;20006;-84
2022/08/01 11:01:37;;;;;;;;;;;;;;;30.35;30.50;99649.06;4285785;33;20041;-80
2022/08/01 11:04:14;;;;;;;;;;;;;;;30.24;30.99;99648.09;4280534;33;20398;-81
2022/08/01 11:07:04;;;;;;;;;;;;;;;30.30;30.57;99651.19;4282577;33;20336;-81
2022/08/01 11:09:39;;;;;;;;;;;;;;;30.47;30.39;99639.38;4293465;33;19991;-81
2022/08/01 11:12:11;;;;;;;;;;;;;;;30.53;30.68;99640.72;4297989;33;19993;-81
2022/08/01 11:14:58;;;;;;;;;;;;;;;30.69;30.15;99637.84;4297322;33;19992;-80
2022/08/01 11:17:48;;;;;;;;;;;;;;;30.83;31.04;99632.41;4286577;33;19976;-81
2022/08/01 11:20:15;;;;;;;;;;;;;;;30.91;30.20;99631.84;4292461;33;20001;-80
2022/08/01 11:22:58;;;;;;;;;;;;;;;31.25;30.39;99635.63;4297341;33;20351;-81
2022/08/01 11:25:25;;;;;;;;;;;;;;;31.28;28.72;99632.72;4298281;33;20736;-80
2022/08/01 11:28:16;;;;;;;;;;;;;;;31.22;27.65;99635.84;4292260;33;19989;-80
2022/08/01 11:30:59;;;;;;;;;;;;;;;30.70;30.16;99628.88;4285630;33;19997;-81
2022/08/01 11:33:44;;;;;;;;;;;;;;;30.96;28.72;99625.22;4289802;33;19981;-82
2022/08/01 11:36:12;;;;;;;;;;;;;;;30.59;29.99;99622.44;4283515;33;20385;-81
2022/08/01 11:38:44;;;;;;;;;;;;;;;31.02;28.32;99624.78;4001981;33;10004001;-84
2022/08/01 11:41:11;;;;;;;;;;;;;;;30.69;28.44;99627.16;4299185;33;20383;-82
2022/08/01 11:43:55;;;;;;;;;;;;;;;30.76;28.49;99625.75;4314249;33;20032;-81
2022/08/01 11:46:40;;;;;;;;;;;;;;;30.72;28.64;99625.09;4304018;33;19992;-82
2022/08/01 11:49:46;;;;;;;;;;;;;;;30.90;29.23;99617.63;4297423;33;20276;-77
2022/08/01 11:52:28;;;;;;;;;;;;;;;30.67;28.40;99623.75;4238032;33;20020;-79
2022/08/01 11:54:56;;;;;;;;;;;;;;;31.01;28.45;99627.53;4296069;33;19992;-82
2022/08/01 11:57:25;;;;;;;;;;;;;;;31.14;29.04;99627.50;4303186;33;20044;-79
2022/08/01 12:00:23;;;;;;;;;;;;;;;31.21;27.54;99620.78;4303125;33;20044;-81
2022/08/01 12:03:00;;;;;;;;;;;;;;;30.94;29.16;99620.94;4296046;33;20015;-77
2022/08/01 12:05:30;;;;;;;;;;;;;;;30.79;29.20;99628.22;4301442;33;19998;-78
2022/08/01 12:07:58;;;;;;;;;;;;;;;30.89;29.65;99623.97;4307060;33;20004;-79
2022/08/01 12:10:26;;;;;;;;;;;;;;;31.16;28.16;99630.94;4312037;33;20007;-79
2022/08/01 12:13:00;;;;;;;;;;;;;;;31.23;26.27;99632.19;4305969;33;19984;-79
2022/08/01 12:15:33;;;;;;;;;;;;;;;31.30;27.84;99629.91;4296323;33;20016;-79
2022/08/01 12:18:01;;;;;;;;;;;;;;;31.27;27.36;99639.03;4302876;33;20036;-79
2022/08/01 12:20:29;;;;;;;;;;;;;;;31.26;26.98;99631.97;4286185;33;782551;-81
2022/08/01 12:22:58;;;;;;;;;;;;;;;31.27;27.79;99633.66;4310392;33;19980;-79
2022/08/01 12:25:26;;;;;;;;;;;;;;;30.94;28.27;99627.13;4307208;33;19984;-82
2022/08/01 12:27:53;;;;;;;;;;;;;;;31.16;27.95;99625.59;4311866;33;19981;-80
2022/08/01 12:30:24;;;;;;;;;;;;;;;30.61;30.18;99618.84;3990034;33;10003907;-80
2022/08/01 12:32:52;;;;;;;;;;;;;;;30.83;30.14;99619.06;4254668;33;19973;-80
2022/08/01 12:35:22;;;;;;;;;;;;;;;31.12;28.33;99616.94;4259313;33;19997;-80
2022/08/01 12:37:51;;;;;;;;;;;;;;;31.28;28.45;99619.34;4260383;33;20412;-81
2022/08/01 12:40:22;;;;;;;;;;;;;;;31.26;29.29;99622.13;4121694;32;5001857;-81
2022/08/01 12:42:53;;;;;;;;;;;;;;;31.36;28.24;99616.97;4300188;33;20005;-83
2022/08/01 12:45:21;;;;;;;;;;;;;;;31.40;27.47;99610.47;4300518;33;19992;-84
2022/08/01 12:47:48;;;;;;;;;;;;;;;31.50;28.13;99618.66;4300846;33;20029;-81
2022/08/01 12:50:22;;;;;;;;;;;;;;;31.56;27.27;99611.97;4288118;33;20047;-80
2022/08/01 12:52:50;;;;;;;;;;;;;;;31.45;28.03;99613.63;4299113;33;20019;-80
2022/08/01 12:55:17;;;;;;;;;;;;;;;31.54;27.92;99605.91;4303954;33;20270;-81
2022/08/01 12:57:45;;;;;;;;;;;;;;;31.55;28.89;99610.28;4302970;33;20000;-79
2022/08/01 13:00:15;;;;;;;;;;;;;;;31.86;28.14;99612.34;4298367;33;20035;-80